Time;durP1;ratioP1;P1;durP2;ratioP2;P2;SDS_P1;SDS_P2;PMS_P1;PMS_P2;Temp;Humidity;BMP_temperature;BMP_pressure;BME280_temperature;BME280_humidity;BME280_pressure;Samples;Min_cycle;Max_cycle;Signal;HPM_P1;HPM_P2
2022/04/27 00:05:52;;;;;;;;;23.00;19.00;;;;;;;;6490740;46;8943;-60
2022/04/27 00:11:56;;;;;;;;;18.33;18.00;;;;;;;;6491325;39;8880;-60
2022/04/27 00:17:58;;;;;;;;;24.33;21.33;;;;;;;;6491504;39;8860;-59
2022/04/27 00:24:00;;;;;;;;;17.67;17.67;;;;;;;;6490664;39;8884;-60
2022/04/27 00:30:03;;;;;;;;;16.00;16.00;;;;;;;;6490519;46;8931;-60
2022/04/27 00:36:05;;;;;;;;;28.33;21.33;;;;;;;;6491040;39;9433;-60
2022/04/27 00:42:17;;;;;;;;;19.67;19.33;;;;;;;;6490802;39;8880;-60
2022/04/27 00:48:20;;;;;;;;;19.67;18.67;;;;;;;;6490682;46;8885;-60
2022/04/27 00:54:23;;;;;;;;;23.50;19.50;;;;;;;;6491164;39;8848;-59
2022/04/27 01:00:25;;;;;;;;;22.33;22.33;;;;;;;;6491088;31;8983;-59
2022/04/27 01:06:30;;;;;;;;;21.33;18.00;;;;;;;;6489753;39;8959;-60
2022/04/27 01:12:35;;;;;;;;;23.33;23.33;;;;;;;;6490618;39;8919;-60
2022/04/27 01:18:44;;;;;;;;;22.33;21.67;;;;;;;;6489277;46;8876;-60
2022/04/27 01:24:49;;;;;;;;;24.00;22.00;;;;;;;;6489730;39;8860;-59
2022/04/27 01:31:00;;;;;;;;;27.25;24.75;;;;;;;;6489777;39;9528;-59
2022/04/27 01:43:24;;;;;;;;;23.50;20.25;;;;;;;;6490703;39;8946;-59
2022/04/27 01:49:26;;;;;;;;;27.75;26.25;;;;;;;;6490617;31;8919;-59
2022/04/27 01:55:29;;;;;;;;;22.33;22.33;;;;;;;;6489829;46;8887;-60
2022/04/27 02:01:32;;;;;;;;;16.33;16.33;;;;;;;;6490057;39;8928;-59
2022/04/27 02:07:35;;;;;;;;;22.75;19.50;;;;;;;;6489466;31;8920;-61
2022/04/27 02:13:38;;;;;;;;;20.67;18.67;;;;;;;;6488837;46;8971;-59
2022/04/27 02:19:41;;;;;;;;;17.33;14.33;;;;;;;;6489476;46;8920;-59
2022/04/27 02:25:44;;;;;;;;;17.00;13.00;;;;;;;;6489448;39;8872;-59
2022/04/27 02:31:46;;;;;;;;;18.25;14.75;;;;;;;;6489538;39;8880;-59
2022/04/27 02:37:48;;;;;;;;;14.25;12.75;;;;;;;;6489891;39;8904;-58
2022/04/27 02:43:50;;;;;;;;;15.67;13.00;;;;;;;;6489330;39;8944;-59
2022/04/27 02:56:36;;;;;;;;;12.67;11.67;;;;;;;;6491808;46;8927;-59
2022/04/27 03:02:40;;;;;;;;;12.00;12.00;;;;;;;;6491040;31;9675;-59
2022/04/27 03:08:44;;;;;;;;;12.25;12.25;;;;;;;;6490786;39;8990;-59
2022/04/27 03:14:47;;;;;;;;;13.25;12.00;;;;;;;;6491497;39;8986;-59
2022/04/27 03:20:51;;;;;;;;;13.50;12.25;;;;;;;;6491491;31;8971;-59
2022/04/27 03:26:53;;;;;;;;;12.00;11.00;;;;;;;;6491464;39;8928;-58
2022/04/27 03:32:59;;;;;;;;;17.50;13.50;;;;;;;;6490414;39;8949;-60
2022/04/27 03:39:04;;;;;;;;;12.00;11.00;;;;;;;;6491692;31;8924;-59
2022/04/27 03:45:10;;;;;;;;;15.00;12.67;;;;;;;;6490811;31;8931;-58
2022/04/27 03:51:17;;;;;;;;;15.00;15.00;;;;;;;;6491001;39;8926;-60
2022/04/27 03:57:22;;;;;;;;;10.75;10.75;;;;;;;;6490525;46;8840;-59
2022/04/27 04:03:26;;;;;;;;;11.00;11.00;;;;;;;;6466023;39;9685;-60
2022/04/27 04:09:29;;;;;;;;;16.00;14.75;;;;;;;;6499464;36;8925;-60
2022/04/27 04:15:32;;;;;;;;;11.25;11.25;;;;;;;;6491197;31;9638;-59
2022/04/27 04:21:54;;;;;;;;;12.75;12.75;;;;;;;;6492272;39;8948;-61
2022/04/27 04:34:30;;;;;;;;;13.67;13.67;;;;;;;;6491724;39;8955;-61
2022/04/27 04:40:34;;;;;;;;;16.67;15.33;;;;;;;;6490607;39;8922;-60
2022/04/27 04:46:36;;;;;;;;;15.50;13.50;;;;;;;;6491399;39;8936;-60
2022/04/27 04:52:55;;;;;;;;;16.75;13.50;;;;;;;;6491179;39;9079;-60
2022/04/27 04:59:11;;;;;;;;;16.00;15.00;;;;;;;;6490977;39;8893;-60
2022/04/27 05:05:32;;;;;;;;;14.33;14.33;;;;;;;;6491573;39;8994;-61
2022/04/27 05:11:59;;;;;;;;;13.00;10.67;;;;;;;;6490372;46;8937;-61
2022/04/27 05:18:19;;;;;;;;;13.33;11.67;;;;;;;;6491134;46;9009;-60
2022/04/27 05:24:51;;;;;;;;;21.00;13.00;;;;;;;;6489572;46;8925;-60
2022/04/27 05:37:58;;;;;;;;;11.33;11.00;;;;;;;;6489768;39;8983;-60
2022/04/27 05:44:22;;;;;;;;;12.00;12.00;;;;;;;;6491413;31;8914;-60
2022/04/27 05:50:42;;;;;;;;;8.33;8.00;;;;;;;;6490485;46;9042;-60
2022/04/27 05:57:21;;;;;;;;;13.00;13.00;;;;;;;;6491015;31;9619;-59
2022/04/27 06:03:50;;;;;;;;;11.33;10.33;;;;;;;;6490975;39;9004;-59
2022/04/27 06:09:53;;;;;;;;;11.33;10.67;;;;;;;;6489437;39;9024;-59
2022/04/27 06:16:23;;;;;;;;;9.33;9.33;;;;;;;;6489737;31;9048;-60
2022/04/27 06:22:38;;;;;;;;;13.33;13.33;;;;;;;;6488071;39;8902;-58
2022/04/27 06:28:41;;;;;;;;;16.33;15.00;;;;;;;;6489144;39;8929;-59
2022/04/27 06:34:46;;;;;;;;;11.33;10.67;;;;;;;;6487590;39;8936;-58
2022/04/27 06:40:51;;;;;;;;;12.33;12.33;;;;;;;;6488579;31;8945;-59
2022/04/27 06:46:54;;;;;;;;;18.33;17.33;;;;;;;;6487207;39;8985;-59
2022/04/27 06:53:15;;;;;;;;;17.33;17.00;;;;;;;;6488540;47;9051;-61
2022/04/27 06:59:42;;;;;;;;;16.67;16.67;;;;;;;;6487760;31;9680;-58
2022/04/27 07:05:47;;;;;;;;;19.33;17.00;;;;;;;;6487720;39;8986;-59
2022/04/27 07:11:49;;;;;;;;;12.33;11.00;;;;;;;;6487533;39;8989;-60
2022/04/27 07:17:52;;;;;;;;;26.33;24.00;;;;;;;;6488429;39;9063;-59
2022/04/27 07:23:56;;;;;;;;;18.00;15.33;;;;;;;;6488259;39;8943;-59
2022/04/27 07:29:59;;;;;;;;;14.33;13.67;;;;;;;;6482180;39;8976;-61
2022/04/27 07:36:06;;;;;;;;;14.33;14.00;;;;;;;;6484293;39;8985;-63
2022/04/27 07:42:09;;;;;;;;;14.00;14.00;;;;;;;;6486507;46;9058;-61
2022/04/27 07:48:13;;;;;;;;;16.00;13.67;;;;;;;;6488499;39;9031;-58
2022/04/27 07:54:15;;;;;;;;;14.00;14.00;;;;;;;;6488399;39;8984;-61
2022/04/27 08:00:20;;;;;;;;;15.33;12.00;;;;;;;;6487675;31;9017;-58
2022/04/27 08:06:24;;;;;;;;;14.00;13.50;;;;;;;;6486466;39;8987;-58
2022/04/27 08:12:26;;;;;;;;;13.33;12.33;;;;;;;;6485641;31;9370;-60
2022/04/27 08:18:29;;;;;;;;;12.33;12.00;;;;;;;;6488224;39;9655;-60
2022/04/27 08:24:33;;;;;;;;;8.00;8.00;;;;;;;;6486004;31;9130;-59
2022/04/27 08:30:44;;;;;;;;;14.00;10.67;;;;;;;;6484495;31;8956;-61
2022/04/27 08:36:46;;;;;;;;;12.67;11.67;;;;;;;;6486603;39;8980;-59
2022/04/27 08:42:49;;;;;;;;;9.67;9.00;;;;;;;;6487899;31;8988;-59
2022/04/27 08:48:51;;;;;;;;;18.67;15.67;;;;;;;;6486010;39;8965;-59
2022/04/27 08:54:55;;;;;;;;;13.00;13.00;;;;;;;;6486531;46;8950;-59
2022/04/27 09:00:59;;;;;;;;;10.67;10.67;;;;;;;;6486229;39;9085;-59
2022/04/27 09:07:17;;;;;;;;;10.33;9.00;;;;;;;;6504008;36;8998;-59
2022/04/27 09:13:30;;;;;;;;;9.67;9.67;;;;;;;;6486937;31;8916;-61
2022/04/27 09:26:22;;;;;;;;;14.50;13.25;;;;;;;;6486401;39;8948;-58
2022/04/27 09:32:28;;;;;;;;;12.50;12.00;;;;;;;;6486018;39;9055;-60
2022/04/27 09:38:40;;;;;;;;;15.25;13.50;;;;;;;;6485997;39;8986;-60
2022/04/27 09:44:42;;;;;;;;;14.50;13.50;;;;;;;;6486244;39;8950;-61
2022/04/27 09:50:58;;;;;;;;;8.25;7.25;;;;;;;;6487312;31;9047;-60
2022/04/27 09:57:08;;;;;;;;;9.00;9.00;;;;;;;;6485737;31;8980;-60
2022/04/27 10:04:02;;;;;;;;;9.00;9.00;;;;;;;;6486208;39;8942;-61
2022/04/27 10:10:05;;;;;;;;;12.25;10.00;;;;;;;;6486601;39;8954;-61
2022/04/27 10:16:08;;;;;;;;;17.00;17.00;;;;;;;;6487536;39;8990;-58
2022/04/27 10:22:31;;;;;;;;;10.50;10.50;;;;;;;;6486853;39;9037;-60
2022/04/27 10:28:37;;;;;;;;;10.00;10.00;;;;;;;;6486785;31;9054;-60
2022/04/27 10:34:39;;;;;;;;;9.00;9.00;;;;;;;;6485629;39;8922;-60
2022/04/27 10:40:42;;;;;;;;;19.50;17.50;;;;;;;;6486083;31;8953;-60
2022/04/27 10:46:44;;;;;;;;;6.25;6.25;;;;;;;;6486944;31;9043;-62
2022/04/27 10:52:52;;;;;;;;;14.25;14.25;;;;;;;;6486633;39;8911;-60
2022/04/27 10:58:58;;;;;;;;;10.50;10.00;;;;;;;;6483963;39;9068;-59
2022/04/27 11:05:20;;;;;;;;;10.75;9.75;;;;;;;;6482370;39;9092;-60
2022/04/27 11:11:26;;;;;;;;;14.75;14.25;;;;;;;;6484510;39;8939;-59
2022/04/27 11:17:29;;;;;;;;;9.25;9.25;;;;;;;;6485838;31;8912;-60
2022/04/27 11:23:31;;;;;;;;;7.00;7.00;;;;;;;;6486052;31;9642;-62
2022/04/27 11:29:35;;;;;;;;;8.00;6.50;;;;;;;;6487632;46;8947;-61
2022/04/27 11:35:47;;;;;;;;;5.00;5.00;;;;;;;;6490153;31;9595;-61
2022/04/27 11:42:01;;;;;;;;;42.33;34.00;;;;;;;;6490438;46;9042;-64
2022/04/27 11:48:09;;;;;;;;;25.50;20.50;;;;;;;;6489847;46;9097;-63
2022/04/27 11:54:25;;;;;;;;;9.50;9.50;;;;;;;;6490697;31;9109;-60
2022/04/27 12:00:36;;;;;;;;;88.33;77.33;;;;;;;;6490288;39;8947;-61
2022/04/27 12:06:39;;;;;;;;;138.00;127.25;;;;;;;;6490190;39;8970;-61
2022/04/27 12:12:43;;;;;;;;;144.25;131.00;;;;;;;;6488556;39;9115;-60
2022/04/27 12:18:54;;;;;;;;;61.33;49.00;;;;;;;;6487325;31;8940;-62
2022/04/27 12:25:01;;;;;;;;;10.75;10.75;;;;;;;;6487072;46;9079;-61
2022/04/27 12:31:08;;;;;;;;;88.25;82.25;;;;;;;;6488035;39;8950;-60
2022/04/27 12:37:32;;;;;;;;;17.00;16.00;;;;;;;;6486814;46;8925;-61
2022/04/27 12:43:46;;;;;;;;;56.00;45.00;;;;;;;;6488576;46;8917;-61
2022/04/27 12:50:02;;;;;;;;;19.25;19.00;;;;;;;;6487649;39;8970;-60
2022/04/27 12:56:10;;;;;;;;;58.67;46.67;;;;;;;;6488346;39;9069;-60
2022/04/27 13:02:14;;;;;;;;;29.50;27.50;;;;;;;;6487095;39;9007;-62
2022/04/27 13:08:17;;;;;;;;;28.00;27.00;;;;;;;;6488241;39;8947;-63
2022/04/27 13:14:20;;;;;;;;;33.67;30.00;;;;;;;;6486674;39;9055;-62
2022/04/27 13:20:23;;;;;;;;;37.00;31.00;;;;;;;;6480673;31;8977;-62
2022/04/27 13:26:26;;;;;;;;;92.50;86.75;;;;;;;;6488426;46;8930;-60
2022/04/27 13:32:28;;;;;;;;;27.50;26.50;;;;;;;;6487038;39;8981;-61
2022/04/27 13:38:32;;;;;;;;;58.67;47.33;;;;;;;;6487045;46;8961;-62
2022/04/27 13:44:35;;;;;;;;;68.75;56.25;;;;;;;;6488643;39;8955;-64
2022/04/27 13:50:39;;;;;;;;;23.75;23.75;;;;;;;;6489153;39;8930;-63
2022/04/27 13:56:42;;;;;;;;;20.00;20.00;;;;;;;;6491264;39;8981;-62
2022/04/27 14:02:45;;;;;;;;;28.75;24.50;;;;;;;;6490338;46;8928;-64
2022/04/27 14:08:51;;;;;;;;;17.00;14.00;;;;;;;;6490750;39;8917;-63
2022/04/27 14:14:53;;;;;;;;;25.25;23.50;;;;;;;;6491486;31;9209;-63
2022/04/27 14:20:57;;;;;;;;;22.25;20.75;;;;;;;;6491762;39;8887;-63
2022/04/27 14:26:59;;;;;;;;;6.50;6.50;;;;;;;;6490557;39;9002;-62
2022/04/27 14:33:04;;;;;;;;;15.75;11.50;;;;;;;;6490718;39;8895;-63
2022/04/27 14:39:06;;;;;;;;;7.00;5.00;;;;;;;;6490965;31;8857;-61
2022/04/27 14:45:09;;;;;;;;;10.00;9.75;;;;;;;;6490533;39;8898;-63
2022/04/27 14:51:11;;;;;;;;;8.75;8.75;;;;;;;;6489638;39;8953;-64
2022/04/27 14:57:13;;;;;;;;;13.25;12.75;;;;;;;;6490360;31;8907;-63
2022/04/27 15:03:15;;;;;;;;;11.25;9.00;;;;;;;;6490533;39;8916;-63
2022/04/27 15:09:18;;;;;;;;;9.75;9.25;;;;;;;;6489755;31;8915;-63
2022/04/27 15:15:20;;;;;;;;;16.50;15.75;;;;;;;;6490513;39;8908;-64
2022/04/27 15:27:45;;;;;;;;;10.00;7.00;;;;;;;;6490909;39;8979;-62
2022/04/27 15:33:49;;;;;;;;;7.50;7.50;;;;;;;;6489714;47;8945;-63
2022/04/27 15:39:52;;;;;;;;;8.75;8.50;;;;;;;;6490397;39;8880;-65
2022/04/27 15:45:55;;;;;;;;;6.50;6.00;;;;;;;;6490243;31;8926;-62
2022/04/27 15:51:59;;;;;;;;;15.50;14.50;;;;;;;;6489910;39;8909;-64
2022/04/27 15:58:01;;;;;;;;;8.25;6.75;;;;;;;;6493069;31;8898;-61
2022/04/27 16:04:03;;;;;;;;;8.75;8.75;;;;;;;;6492039;39;8978;-64
2022/04/27 16:10:08;;;;;;;;;18.50;15.50;;;;;;;;6492095;39;8974;-65
2022/04/27 16:16:10;;;;;;;;;6.00;5.75;;;;;;;;6491744;31;8927;-63
2022/04/27 16:28:33;;;;;;;;;6.25;6.25;;;;;;;;6491492;39;8911;-62
2022/04/27 16:34:35;;;;;;;;;7.50;7.50;;;;;;;;6491680;46;8851;-64
2022/04/27 16:40:39;;;;;;;;;10.75;10.25;;;;;;;;6491961;39;9495;-62
2022/04/27 16:46:42;;;;;;;;;12.25;10.75;;;;;;;;6492172;31;8883;-63
2022/04/27 16:52:46;;;;;;;;;9.67;9.67;;;;;;;;6491100;46;8894;-63
2022/04/27 16:58:52;;;;;;;;;12.00;12.00;;;;;;;;6491100;46;8926;-64
2022/04/27 17:04:54;;;;;;;;;2.67;2.67;;;;;;;;6492881;31;8906;-62
2022/04/27 17:10:59;;;;;;;;;10.33;7.33;;;;;;;;6492061;39;9411;-63
2022/04/27 17:17:02;;;;;;;;;8.00;5.33;;;;;;;;6491774;39;8840;-64
2022/04/27 17:23:04;;;;;;;;;10.00;8.67;;;;;;;;6490930;39;8887;-64
2022/04/27 17:29:07;;;;;;;;;8.33;6.00;;;;;;;;6491592;39;8927;-63
2022/04/27 17:35:10;;;;;;;;;10.67;10.67;;;;;;;;6491434;39;8909;-63
2022/04/27 17:41:16;;;;;;;;;5.33;5.33;;;;;;;;6491970;39;9451;-63
2022/04/27 17:47:19;;;;;;;;;8.33;7.33;;;;;;;;6491411;39;8962;-62
2022/04/27 17:53:22;;;;;;;;;6.00;6.00;;;;;;;;6490607;46;8875;-62
2022/04/27 17:59:24;;;;;;;;;15.67;12.00;;;;;;;;6491705;31;8923;-63
2022/04/27 18:05:26;;;;;;;;;10.00;8.00;;;;;;;;6490985;31;8965;-62
2022/04/27 18:11:29;;;;;;;;;12.67;10.00;;;;;;;;6491188;39;8911;-62
2022/04/27 18:17:31;;;;;;;;;6.33;4.33;;;;;;;;6491607;39;8883;-62
2022/04/27 18:23:35;;;;;;;;;9.00;7.33;;;;;;;;6491496;31;8855;-63
2022/04/27 18:29:37;;;;;;;;;10.00;9.00;;;;;;;;6491085;39;9567;-62
2022/04/27 18:35:39;;;;;;;;;8.67;8.33;;;;;;;;6490793;39;8879;-63
2022/04/27 18:41:42;;;;;;;;;11.33;9.00;;;;;;;;6490920;39;9491;-64
2022/04/27 18:54:07;;;;;;;;;6.33;5.33;;;;;;;;6490996;39;8930;-62
2022/04/27 19:00:15;;;;;;;;;8.67;8.33;;;;;;;;6491237;31;8899;-63
2022/04/27 19:06:18;;;;;;;;;7.33;6.00;;;;;;;;6490554;39;8949;-63
2022/04/27 19:12:22;;;;;;;;;9.67;9.00;;;;;;;;6490781;39;8962;-63
2022/04/27 19:18:25;;;;;;;;;7.33;7.33;;;;;;;;6490839;39;8938;-64
2022/04/27 19:24:30;;;;;;;;;7.33;7.33;;;;;;;;6489891;31;8871;-63
2022/04/27 19:30:32;;;;;;;;;4.00;4.00;;;;;;;;6492373;39;8907;-61
2022/04/27 19:36:35;;;;;;;;;5.00;5.00;;;;;;;;6492002;46;8871;-63
2022/04/27 19:42:37;;;;;;;;;5.67;4.67;;;;;;;;6491956;39;8870;-63
2022/04/27 19:48:39;;;;;;;;;5.00;5.00;;;;;;;;6491982;39;9027;-62
2022/04/27 19:54:44;;;;;;;;;7.00;7.00;;;;;;;;6492146;31;9060;-62
2022/04/27 20:00:50;;;;;;;;;6.00;6.00;;;;;;;;6492495;31;8867;-63
2022/04/27 20:06:53;;;;;;;;;6.00;5.00;;;;;;;;6492808;39;9006;-62
2022/04/27 20:12:57;;;;;;;;;3.33;2.67;;;;;;;;6491242;46;9006;-62
2022/04/27 20:18:59;;;;;;;;;4.00;4.00;;;;;;;;6492391;31;8883;-63
2022/04/27 20:25:02;;;;;;;;;4.67;4.00;;;;;;;;6492681;39;8843;-63
2022/04/27 20:31:05;;;;;;;;;7.67;7.67;;;;;;;;6491311;46;9112;-63
2022/04/27 20:37:07;;;;;;;;;8.67;6.33;;;;;;;;6491868;39;9561;-62
2022/04/27 20:43:09;;;;;;;;;8.00;5.00;;;;;;;;6491679;39;8891;-63
2022/04/27 20:49:11;;;;;;;;;6.67;6.67;;;;;;;;6491477;39;8899;-63
2022/04/27 20:55:14;;;;;;;;;8.67;8.67;;;;;;;;6491931;31;8915;-63
2022/04/27 21:01:16;;;;;;;;;12.33;12.33;;;;;;;;6491722;46;8962;-63
2022/04/27 21:07:18;;;;;;;;;10.00;8.00;;;;;;;;6491699;39;8919;-63
2022/04/27 21:13:20;;;;;;;;;14.33;13.00;;;;;;;;6491689;31;8879;-63
2022/04/27 21:19:23;;;;;;;;;17.00;14.50;;;;;;;;6492041;31;8901;-63
2022/04/27 21:25:26;;;;;;;;;17.00;13.33;;;;;;;;6490630;46;8871;-62
2022/04/27 21:31:29;;;;;;;;;13.67;13.33;;;;;;;;6492010;39;8899;-61
2022/04/27 21:37:31;;;;;;;;;17.00;14.50;;;;;;;;6490638;31;8967;-62
2022/04/27 21:43:33;;;;;;;;;17.33;16.00;;;;;;;;6491967;31;8839;-63
2022/04/27 21:49:36;;;;;;;;;12.33;12.33;;;;;;;;6491152;39;8958;-62
2022/04/27 21:55:39;;;;;;;;;16.25;13.50;;;;;;;;6491739;46;8923;-64
2022/04/27 22:01:41;;;;;;;;;17.00;15.50;;;;;;;;6491201;39;9971;-61
2022/04/27 22:07:44;;;;;;;;;14.33;14.33;;;;;;;;6491827;39;9614;-62
2022/04/27 22:13:53;;;;;;;;;15.00;13.50;;;;;;;;6491809;31;9006;-62
2022/04/27 22:19:58;;;;;;;;;15.00;14.50;;;;;;;;6491385;39;8883;-63
2022/04/27 22:26:01;;;;;;;;;16.00;14.00;;;;;;;;6491404;39;8885;-63
2022/04/27 22:32:07;;;;;;;;;19.00;15.00;;;;;;;;6491215;39;8945;-62
2022/04/27 22:38:12;;;;;;;;;17.50;16.50;;;;;;;;6490959;39;8859;-63
2022/04/27 22:44:17;;;;;;;;;17.00;15.33;;;;;;;;6491350;39;8918;-63
2022/04/27 22:50:20;;;;;;;;;16.00;13.00;;;;;;;;6491043;39;8974;-63
2022/04/27 22:56:23;;;;;;;;;18.00;15.33;;;;;;;;6491014;31;9710;-62
2022/04/27 23:02:25;;;;;;;;;17.50;17.50;;;;;;;;6489810;46;8919;-62
2022/04/27 23:14:50;;;;;;;;;20.00;18.67;;;;;;;;6492371;39;8863;-62
2022/04/27 23:20:52;;;;;;;;;16.00;16.00;;;;;;;;6492528;31;8890;-63
2022/04/27 23:26:54;;;;;;;;;13.25;13.25;;;;;;;;6492002;31;8855;-64
2022/04/27 23:32:58;;;;;;;;;17.00;16.50;;;;;;;;6492573;39;8919;-63
2022/04/27 23:39:00;;;;;;;;;16.00;16.00;;;;;;;;6492430;39;8943;-62
2022/04/27 23:45:05;;;;;;;;;15.50;15.50;;;;;;;;6492693;31;8955;-62
2022/04/27 23:51:07;;;;;;;;;18.75;18.50;;;;;;;;6491952;39;8883;-62
2022/04/27 23:57:11;;;;;;;;;13.25;13.25;;;;;;;;6492687;39;8935;-63
